createdAt,value
2019-01-26T00:03:13.674Z,20.97
2019-01-26T00:08:19.151Z,20.97
2019-01-26T00:13:23.391Z,20.98
2019-01-26T00:18:27.600Z,20.89
2019-01-26T00:23:31.863Z,20.91
2019-01-26T00:28:36.168Z,20.98
2019-01-26T00:33:43.303Z,20.98
2019-01-26T00:38:46.430Z,20.97
2019-01-26T00:43:50.677Z,21.00
2019-01-26T00:48:54.836Z,20.97
2019-01-26T00:53:58.940Z,20.98
2019-01-26T00:59:03.226Z,20.97
2019-01-26T01:04:07.610Z,20.97
2019-01-26T01:09:11.811Z,20.97
2019-01-26T01:14:16.024Z,20.98
2019-01-26T01:19:20.153Z,20.98
2019-01-26T01:24:24.187Z,20.98
2019-01-26T01:29:28.322Z,20.99
2019-01-26T01:34:32.518Z,20.99
2019-01-26T01:39:36.704Z,20.99
2019-01-26T01:44:40.851Z,20.96
2019-01-26T01:49:45.071Z,20.95
2019-01-26T01:54:49.138Z,20.96
2019-01-26T01:59:53.158Z,20.98
2019-01-26T02:04:57.301Z,20.94
2019-01-26T02:10:01.399Z,20.94
2019-01-26T02:15:07.102Z,20.95
2019-01-26T02:20:13.702Z,20.95
2019-01-26T02:25:17.888Z,20.95
2019-01-26T02:30:23.815Z,20.95
2019-01-26T02:35:27.990Z,20.93
2019-01-26T02:40:32.159Z,20.93
2019-01-26T02:45:36.286Z,20.92
2019-01-26T02:50:40.355Z,20.78
2019-01-26T02:55:44.502Z,20.83
2019-01-26T03:00:48.592Z,20.77
2019-01-26T03:05:52.624Z,20.73
2019-01-26T03:10:56.803Z,20.69
2019-01-26T03:16:00.848Z,20.65
2019-01-26T03:21:05.050Z,20.60
2019-01-26T03:26:09.290Z,20.57
2019-01-26T03:31:13.416Z,20.53
2019-01-26T03:36:17.638Z,20.49
2019-01-26T03:41:21.781Z,20.47
2019-01-26T03:46:26.032Z,20.45
2019-01-26T03:51:30.253Z,20.45
2019-01-26T03:56:34.457Z,20.38
2019-01-26T04:01:38.623Z,20.35
2019-01-26T04:06:42.757Z,20.34
2019-01-26T04:11:46.873Z,20.30
2019-01-26T04:16:51.152Z,20.29
2019-01-26T04:21:55.360Z,20.18
2019-01-26T04:26:59.452Z,20.23
2019-01-26T04:32:03.555Z,20.22
2019-01-26T04:37:07.712Z,20.19
2019-01-26T04:42:11.796Z,20.17
2019-01-26T04:47:15.918Z,20.17
2019-01-26T04:52:20.053Z,20.15
2019-01-26T04:57:24.170Z,20.13
2019-01-26T05:02:28.312Z,20.09
2019-01-26T05:07:32.593Z,19.99
2019-01-26T05:12:36.753Z,20.05
2019-01-26T05:17:40.907Z,20.04
2019-01-26T05:22:45.071Z,20.02
2019-01-26T05:27:49.410Z,19.99
2019-01-26T05:32:53.602Z,19.96
2019-01-26T05:37:57.744Z,19.96
2019-01-26T05:43:02.026Z,19.94
2019-01-26T05:48:06.339Z,19.91
2019-01-26T05:53:10.560Z,19.90
2019-01-26T05:58:14.721Z,19.89
2019-01-26T06:03:18.938Z,19.89
2019-01-26T06:08:22.971Z,19.88
2019-01-26T06:13:26.994Z,19.80
2019-01-26T06:18:31.041Z,19.87
2019-01-26T06:23:35.092Z,19.78
2019-01-26T06:28:39.137Z,19.86
2019-01-26T06:33:43.251Z,19.86
2019-01-26T06:38:47.392Z,19.83
2019-01-26T06:43:51.464Z,19.74
2019-01-26T06:48:58.809Z,19.81
2019-01-26T06:54:02.944Z,19.85
2019-01-26T06:59:07.160Z,19.78
2019-01-26T07:04:12.936Z,19.76
2019-01-26T07:09:17.020Z,19.76
2019-01-26T07:14:21.084Z,19.74
2019-01-26T07:19:25.167Z,19.75
2019-01-26T07:24:29.231Z,19.75
2019-01-26T07:29:33.591Z,19.76
2019-01-26T07:34:37.741Z,19.76
2019-01-26T07:39:41.802Z,19.74
2019-01-26T07:44:46.158Z,19.76
2019-01-26T07:49:52.507Z,19.86
2019-01-26T07:54:56.649Z,19.92
2019-01-26T08:00:00.794Z,19.92
2019-01-26T08:05:06.068Z,19.66
2019-01-26T08:10:13.230Z,19.57
2019-01-26T08:15:22.740Z,19.59
2019-01-26T08:20:27.021Z,19.83
2019-01-26T08:25:31.170Z,20.75
2019-01-26T08:30:35.355Z,21.08
2019-01-26T08:35:41.356Z,20.77
2019-01-26T08:40:45.453Z,20.77
2019-01-26T08:45:49.618Z,21.17
2019-01-26T08:50:53.818Z,21.04
2019-01-26T08:55:57.853Z,20.97
2019-01-26T09:01:01.971Z,20.74
2019-01-26T09:06:09.390Z,20.59
2019-01-26T09:11:13.550Z,20.49
2019-01-26T09:16:17.552Z,20.60
2019-01-26T09:21:21.726Z,20.63
2019-01-26T09:26:25.900Z,20.97
2019-01-26T09:31:30.007Z,21.17
2019-01-26T09:36:34.052Z,21.20
2019-01-26T09:41:38.254Z,21.11
2019-01-26T09:46:42.683Z,20.83
2019-01-26T09:51:47.017Z,20.78
2019-01-26T09:56:51.056Z,20.63
2019-01-26T10:01:57.526Z,20.52
2019-01-26T10:07:01.890Z,20.42
2019-01-26T10:12:06.166Z,20.49
2019-01-26T10:17:10.724Z,20.93
2019-01-26T10:22:14.891Z,21.16
2019-01-26T10:27:19.612Z,21.20
2019-01-26T10:59:10.281Z,20.72
2019-01-26T11:04:14.351Z,20.65
2019-01-26T11:09:18.484Z,20.64
2019-01-26T11:52:12.520Z,21.03
2019-01-26T11:57:18.912Z,20.95
2019-01-26T12:02:30.009Z,20.95
2019-01-26T12:07:34.835Z,20.86
2019-01-26T12:12:39.415Z,20.81
2019-01-26T12:17:43.661Z,20.54
2019-01-26T12:22:47.839Z,20.58
2019-01-26T12:27:53.401Z,20.48
2019-01-26T12:32:57.745Z,20.71
2019-01-26T12:38:02.173Z,21.11
2019-01-26T12:43:06.722Z,21.11
2019-01-26T12:48:11.044Z,21.00
2019-01-26T12:53:15.611Z,20.99
2019-01-26T12:58:19.812Z,20.93
2019-01-26T13:03:24.599Z,20.77
2019-01-26T13:08:29.323Z,20.67
2019-01-26T13:13:33.552Z,20.60
2019-01-26T13:18:37.919Z,20.51
2019-01-26T13:23:42.318Z,20.47
2019-01-26T13:28:46.903Z,20.35
2019-01-26T13:33:51.356Z,20.44
2019-01-26T13:38:55.825Z,20.72
2019-01-26T13:44:00.371Z,20.98
2019-01-26T13:49:05.341Z,20.94
2019-01-26T13:54:09.403Z,20.88
2019-01-26T13:59:13.985Z,20.78
2019-01-26T14:04:18.078Z,20.78
2019-01-26T14:09:22.524Z,20.66
2019-01-26T14:14:27.003Z,20.67
2019-01-26T14:19:31.416Z,20.75
2019-01-26T14:24:35.980Z,20.58
2019-01-26T14:29:40.547Z,20.66
2019-01-26T14:34:44.891Z,20.63
2019-01-26T14:39:49.497Z,20.43
2019-01-26T14:44:53.844Z,20.41
2019-01-26T14:49:58.816Z,20.70
2019-01-26T14:55:04.226Z,20.90
2019-01-26T15:00:13.501Z,20.94
2019-01-26T15:05:18.367Z,20.82
2019-01-26T15:10:23.045Z,20.77
2019-01-26T15:15:27.527Z,20.64
2019-01-26T15:20:34.362Z,20.49
2019-01-26T15:25:39.566Z,20.49
2019-01-26T15:30:45.289Z,20.54
2019-01-26T15:35:49.307Z,20.55
2019-01-26T15:40:53.610Z,20.58
2019-01-26T15:45:57.965Z,20.80
2019-01-26T15:51:02.730Z,20.99
2019-01-26T15:56:07.058Z,20.89
2019-01-26T16:01:11.785Z,20.83
2019-01-26T16:06:16.081Z,20.72
2019-01-26T16:11:20.265Z,20.72
2019-01-26T16:16:25.324Z,20.66
2019-01-26T16:21:29.930Z,20.49
2019-01-26T16:26:34.466Z,20.51
2019-01-26T16:31:38.973Z,20.40
2019-01-26T16:36:43.841Z,20.49
2019-01-26T16:41:48.270Z,20.65
2019-01-26T16:46:52.674Z,20.65
2019-01-26T16:51:57.014Z,20.96
2019-01-26T16:57:01.552Z,20.96
2019-01-26T17:02:06.156Z,20.67
2019-01-26T17:07:10.811Z,20.60
2019-01-26T17:12:15.064Z,20.53
2019-01-26T17:17:19.390Z,20.35
2019-01-26T17:22:23.813Z,20.35
2019-01-26T17:27:28.690Z,21.40
2019-01-26T17:32:33.068Z,21.51
2019-01-26T17:37:38.000Z,21.56
2019-01-26T17:42:42.888Z,21.56
2019-01-26T17:47:47.886Z,21.58
2019-01-26T17:52:52.378Z,21.54
2019-01-26T17:57:57.266Z,21.81
2019-01-26T18:03:02.329Z,22.01
2019-01-26T18:08:06.972Z,21.98
2019-01-26T18:13:11.699Z,22.03
2019-01-26T18:18:16.769Z,22.02
2019-01-26T18:23:26.460Z,22.04
2019-01-26T18:28:31.258Z,22.04
2019-01-26T18:33:36.262Z,22.08
2019-01-26T18:38:41.780Z,22.09
2019-01-26T18:43:46.659Z,22.09
2019-01-26T18:48:52.073Z,22.07
2019-01-26T18:53:56.801Z,22.07
2019-01-26T18:59:01.562Z,22.14
2019-01-26T19:04:35.519Z,22.28
2019-01-26T19:09:42.531Z,22.28
2019-01-26T19:14:53.195Z,21.98
2019-01-26T19:19:58.604Z,22.01
2019-01-26T19:25:06.417Z,22.06
2019-01-26T19:30:14.422Z,22.26
2019-01-26T19:35:19.972Z,22.21
2019-01-26T19:40:25.754Z,22.21
2019-01-26T19:45:32.420Z,22.16
2019-01-26T19:50:38.822Z,22.29
2019-01-26T19:55:44.877Z,22.29
2019-01-26T20:00:51.165Z,22.25
2019-01-26T20:05:57.633Z,22.25
2019-01-26T20:11:03.838Z,22.10
2019-01-26T20:16:10.336Z,22.10
2019-01-26T20:21:17.766Z,21.73
2019-01-26T20:26:24.696Z,21.72
2019-01-26T20:31:31.210Z,21.72
2019-01-26T20:36:37.288Z,21.52
2019-01-26T20:41:43.151Z,21.52
2019-01-26T20:46:49.222Z,21.31
2019-01-26T20:51:55.425Z,21.31
2019-01-26T20:57:01.618Z,21.26
2019-01-26T21:02:08.524Z,21.26
2019-01-26T21:07:21.527Z,21.13
2019-01-26T21:12:27.136Z,21.20
2019-01-26T21:17:32.375Z,21.16
2019-01-26T21:22:37.698Z,21.06
2019-01-26T21:27:42.942Z,21.06
2019-01-26T21:32:48.314Z,21.11
2019-01-26T21:37:53.449Z,21.11
2019-01-26T21:42:58.680Z,20.98
2019-01-26T21:48:04.175Z,21.04
2019-01-26T21:53:09.687Z,21.04
2019-01-26T21:58:15.260Z,21.03
2019-01-26T22:03:20.404Z,21.01
2019-01-26T22:08:25.422Z,20.97
2019-01-26T22:13:30.139Z,20.97
2019-01-26T22:18:34.712Z,20.98
2019-01-26T22:23:39.073Z,20.98
2019-01-26T22:28:43.423Z,20.99
2019-01-26T22:33:47.716Z,20.86
2019-01-26T22:38:52.328Z,20.86
2019-01-26T22:43:56.710Z,20.95
2019-01-26T22:49:00.981Z,20.96
2019-01-26T22:54:05.535Z,20.99
2019-01-26T22:59:09.648Z,20.96
2019-01-26T23:04:44.584Z,20.98
2019-01-26T23:10:19.006Z,20.96
2019-01-26T23:16:07.918Z,20.98
2019-01-26T23:21:42.201Z,21.01
2019-01-26T23:27:13.239Z,20.90
2019-01-26T23:32:17.359Z,20.97
2019-01-26T23:37:21.474Z,20.90
2019-01-26T23:42:25.578Z,20.97
2019-01-26T23:47:29.723Z,21.00
2019-01-26T23:52:33.989Z,20.89
2019-01-26T23:57:38.180Z,20.95
